sensor_id;sensor_type;location;lat;lon;timestamp;pressure;altitude;pressure_sealevel;temperature;humidity
64632;BME280;58358;50.936;0.246;2024-03-22T00:01:55;101656.16;;;8.06;100.00
64632;BME280;58358;50.936;0.246;2024-03-22T00:04:20;101654.76;;;8.02;100.00
64632;BME280;58358;50.936;0.246;2024-03-22T00:06:46;101649.13;;;7.72;100.00
64632;BME280;58358;50.936;0.246;2024-03-22T00:09:11;101645.78;;;7.87;100.00
64632;BME280;58358;50.936;0.246;2024-03-22T00:11:37;101638.93;;;7.50;100.00
64632;BME280;58358;50.936;0.246;2024-03-22T00:14:02;101640.00;;;8.00;100.00
64632;BME280;58358;50.936;0.246;2024-03-22T00:16:28;101635.47;;;8.76;100.00
64632;BME280;58358;50.936;0.246;2024-03-22T00:18:53;101629.14;;;8.98;100.00
64632;BME280;58358;50.936;0.246;2024-03-22T00:21:18;101619.64;;;9.91;100.00
64632;BME280;58358;50.936;0.246;2024-03-22T00:23:45;101618.65;;;8.87;100.00
64632;BME280;58358;50.936;0.246;2024-03-22T00:26:10;101619.72;;;8.82;100.00
64632;BME280;58358;50.936;0.246;2024-03-22T00:28:35;101616.06;;;8.97;100.00
64632;BME280;58358;50.936;0.246;2024-03-22T00:31:00;101615.31;;;8.36;100.00
64632;BME280;58358;50.936;0.246;2024-03-22T00:33:25;101620.83;;;8.91;100.00
64632;BME280;58358;50.936;0.246;2024-03-22T00:35:51;101625.94;;;8.15;100.00
64632;BME280;58358;50.936;0.246;2024-03-22T00:38:17;101633.74;;;9.27;100.00
64632;BME280;58358;50.936;0.246;2024-03-22T00:40:42;101628.58;;;9.21;100.00
64632;BME280;58358;50.936;0.246;2024-03-22T00:43:08;101630.49;;;9.43;100.00
64632;BME280;58358;50.936;0.246;2024-03-22T00:45:34;101632.43;;;8.33;100.00
64632;BME280;58358;50.936;0.246;2024-03-22T00:47:59;101625.42;;;9.16;100.00
64632;BME280;58358;50.936;0.246;2024-03-22T00:50:24;101623.53;;;8.52;100.00
64632;BME280;58358;50.936;0.246;2024-03-22T00:52:50;101629.96;;;8.40;100.00
64632;BME280;58358;50.936;0.246;2024-03-22T00:55:15;101619.13;;;7.79;100.00
64632;BME280;58358;50.936;0.246;2024-03-22T00:57:40;101601.75;;;7.64;100.00
64632;BME280;58358;50.936;0.246;2024-03-22T01:00:07;101592.74;;;6.79;100.00
64632;BME280;58358;50.936;0.246;2024-03-22T01:02:31;101589.29;;;6.98;100.00
64632;BME280;58358;50.936;0.246;2024-03-22T01:04:57;101588.25;;;7.42;100.00
64632;BME280;58358;50.936;0.246;2024-03-22T01:07:22;101587.22;;;7.81;100.00
64632;BME280;58358;50.936;0.246;2024-03-22T01:09:47;101571.69;;;7.19;100.00
64632;BME280;58358;50.936;0.246;2024-03-22T01:12:13;101572.24;;;6.86;100.00
64632;BME280;58358;50.936;0.246;2024-03-22T01:14:39;101571.13;;;6.73;100.00
64632;BME280;58358;50.936;0.246;2024-03-22T01:17:04;101564.19;;;7.40;100.00
64632;BME280;58358;50.936;0.246;2024-03-22T01:19:29;101564.68;;;7.80;100.00
64632;BME280;58358;50.936;0.246;2024-03-22T01:21:54;101564.16;;;8.10;100.00
64632;BME280;58358;50.936;0.246;2024-03-22T01:24:20;101565.43;;;7.52;100.00
64632;BME280;58358;50.936;0.246;2024-03-22T01:26:45;101565.77;;;7.59;100.00
64632;BME280;58358;50.936;0.246;2024-03-22T01:29:11;101561.64;;;7.17;100.00
64632;BME280;58358;50.936;0.246;2024-03-22T01:31:36;101558.25;;;7.53;100.00
64632;BME280;58358;50.936;0.246;2024-03-22T01:34:01;101557.03;;;6.27;100.00
64632;BME280;58358;50.936;0.246;2024-03-22T01:36:27;101556.00;;;8.32;100.00
64632;BME280;58358;50.936;0.246;2024-03-22T01:38:52;101554.67;;;7.73;100.00
64632;BME280;58358;50.936;0.246;2024-03-22T01:41:17;101544.81;;;7.11;100.00
64632;BME280;58358;50.936;0.246;2024-03-22T01:43:42;101542.96;;;6.77;100.00
64632;BME280;58358;50.936;0.246;2024-03-22T01:46:08;101537.47;;;7.70;100.00
64632;BME280;58358;50.936;0.246;2024-03-22T01:48:34;101533.84;;;7.92;100.00
64632;BME280;58358;50.936;0.246;2024-03-22T01:50:59;101533.51;;;7.42;100.00
64632;BME280;58358;50.936;0.246;2024-03-22T01:53:24;101531.81;;;7.52;100.00
64632;BME280;58358;50.936;0.246;2024-03-22T01:55:49;101525.65;;;6.91;100.00
64632;BME280;58358;50.936;0.246;2024-03-22T01:58:15;101532.45;;;7.66;100.00
64632;BME280;58358;50.936;0.246;2024-03-22T02:00:41;101527.73;;;8.06;100.00
64632;BME280;58358;50.936;0.246;2024-03-22T02:03:06;101525.33;;;8.03;100.00
64632;BME280;58358;50.936;0.246;2024-03-22T02:05:32;101522.16;;;8.42;100.00
64632;BME280;58358;50.936;0.246;2024-03-22T02:07:57;101519.17;;;7.58;100.00
64632;BME280;58358;50.936;0.246;2024-03-22T02:10:23;101515.92;;;8.73;100.00
64632;BME280;58358;50.936;0.246;2024-03-22T02:12:48;101515.10;;;8.29;100.00
64632;BME280;58358;50.936;0.246;2024-03-22T02:15:13;101516.49;;;8.44;100.00
64632;BME280;58358;50.936;0.246;2024-03-22T02:17:38;101515.47;;;7.59;100.00
64632;BME280;58358;50.936;0.246;2024-03-22T02:20:04;101519.27;;;7.85;100.00
64632;BME280;58358;50.936;0.246;2024-03-22T02:22:29;101518.79;;;8.28;100.00
64632;BME280;58358;50.936;0.246;2024-03-22T02:24:55;101514.64;;;7.86;100.00
64632;BME280;58358;50.936;0.246;2024-03-22T02:27:20;101511.66;;;8.11;100.00
64632;BME280;58358;50.936;0.246;2024-03-22T02:29:46;101504.69;;;7.90;100.00
64632;BME280;58358;50.936;0.246;2024-03-22T02:32:11;101498.90;;;8.83;100.00
64632;BME280;58358;50.936;0.246;2024-03-22T02:34:37;101501.14;;;8.51;100.00
64632;BME280;58358;50.936;0.246;2024-03-22T02:37:02;101498.40;;;7.34;100.00
64632;BME280;58358;50.936;0.246;2024-03-22T02:39:27;101493.72;;;7.45;100.00
64632;BME280;58358;50.936;0.246;2024-03-22T02:41:53;101489.96;;;8.28;100.00
64632;BME280;58358;50.936;0.246;2024-03-22T02:44:18;101480.34;;;8.71;100.00
64632;BME280;58358;50.936;0.246;2024-03-22T02:46:43;101480.69;;;8.54;100.00
64632;BME280;58358;50.936;0.246;2024-03-22T02:49:09;101483.22;;;8.37;100.00
64632;BME280;58358;50.936;0.246;2024-03-22T02:51:34;101481.31;;;8.53;100.00
64632;BME280;58358;50.936;0.246;2024-03-22T02:54:00;101479.27;;;8.49;100.00
64632;BME280;58358;50.936;0.246;2024-03-22T02:56:25;101478.51;;;9.08;100.00
64632;BME280;58358;50.936;0.246;2024-03-22T02:58:51;101476.92;;;8.77;100.00
64632;BME280;58358;50.936;0.246;2024-03-22T03:01:17;101476.11;;;7.72;100.00
64632;BME280;58358;50.936;0.246;2024-03-22T03:03:42;101466.92;;;8.95;100.00
64632;BME280;58358;50.936;0.246;2024-03-22T03:06:07;101465.88;;;8.53;100.00
64632;BME280;58358;50.936;0.246;2024-03-22T03:08:33;101465.19;;;8.89;100.00
64632;BME280;58358;50.936;0.246;2024-03-22T03:10:58;101459.90;;;9.18;100.00
64632;BME280;58358;50.936;0.246;2024-03-22T03:13:24;101459.09;;;8.93;100.00
64632;BME280;58358;50.936;0.246;2024-03-22T03:15:49;101460.52;;;7.56;100.00
64632;BME280;58358;50.936;0.246;2024-03-22T03:18:14;101454.95;;;8.21;100.00
64632;BME280;58358;50.936;0.246;2024-03-22T03:20:40;101447.70;;;9.02;100.00
64632;BME280;58358;50.936;0.246;2024-03-22T03:23:05;101451.50;;;7.21;100.00
64632;BME280;58358;50.936;0.246;2024-03-22T03:25:30;101453.27;;;7.88;100.00
64632;BME280;58358;50.936;0.246;2024-03-22T03:27:56;101451.09;;;7.18;100.00
64632;BME280;58358;50.936;0.246;2024-03-22T03:30:21;101450.71;;;7.50;100.00
64632;BME280;58358;50.936;0.246;2024-03-22T03:32:47;101442.42;;;8.00;100.00
64632;BME280;58358;50.936;0.246;2024-03-22T03:35:13;101438.82;;;8.77;100.00
64632;BME280;58358;50.936;0.246;2024-03-22T03:37:38;101431.23;;;8.01;100.00
64632;BME280;58358;50.936;0.246;2024-03-22T03:40:04;101424.41;;;7.98;100.00
64632;BME280;58358;50.936;0.246;2024-03-22T03:42:29;101416.69;;;7.82;100.00
64632;BME280;58358;50.936;0.246;2024-03-22T03:44:54;101425.22;;;7.31;100.00
64632;BME280;58358;50.936;0.246;2024-03-22T03:47:20;101434.94;;;7.65;100.00
64632;BME280;58358;50.936;0.246;2024-03-22T03:49:45;101435.49;;;6.70;100.00
64632;BME280;58358;50.936;0.246;2024-03-22T03:52:11;101435.07;;;7.62;100.00
64632;BME280;58358;50.936;0.246;2024-03-22T03:54:37;101436.46;;;7.59;100.00
64632;BME280;58358;50.936;0.246;2024-03-22T03:57:03;101435.17;;;8.38;100.00
64632;BME280;58358;50.936;0.246;2024-03-22T03:59:29;101428.65;;;7.17;100.00
64632;BME280;58358;50.936;0.246;2024-03-22T04:01:54;101431.07;;;7.69;100.00
64632;BME280;58358;50.936;0.246;2024-03-22T04:04:20;101427.38;;;7.65;100.00
64632;BME280;58358;50.936;0.246;2024-03-22T04:06:45;101433.18;;;7.36;100.00
64632;BME280;58358;50.936;0.246;2024-03-22T04:09:11;101426.96;;;7.77;100.00
64632;BME280;58358;50.936;0.246;2024-03-22T04:11:37;101431.36;;;8.23;100.00
64632;BME280;58358;50.936;0.246;2024-03-22T04:14:02;101429.03;;;7.65;100.00
64632;BME280;58358;50.936;0.246;2024-03-22T04:16:28;101423.87;;;8.33;100.00
64632;BME280;58358;50.936;0.246;2024-03-22T04:18:54;101421.38;;;8.13;100.00
64632;BME280;58358;50.936;0.246;2024-03-22T04:21:19;101419.09;;;7.88;100.00
64632;BME280;58358;50.936;0.246;2024-03-22T04:23:45;101411.42;;;8.57;100.00
64632;BME280;58358;50.936;0.246;2024-03-22T04:26:10;101416.62;;;7.66;100.00
64632;BME280;58358;50.936;0.246;2024-03-22T04:28:36;101416.22;;;7.85;100.00
64632;BME280;58358;50.936;0.246;2024-03-22T04:31:03;101412.21;;;8.54;100.00
64632;BME280;58358;50.936;0.246;2024-03-22T04:33:28;101416.42;;;8.66;100.00
64632;BME280;58358;50.936;0.246;2024-03-22T04:35:53;101409.17;;;8.48;100.00
64632;BME280;58358;50.936;0.246;2024-03-22T04:38:18;101413.08;;;8.05;100.00
64632;BME280;58358;50.936;0.246;2024-03-22T04:40:44;101421.55;;;7.97;100.00
64632;BME280;58358;50.936;0.246;2024-03-22T04:43:10;101419.59;;;8.02;100.00
64632;BME280;58358;50.936;0.246;2024-03-22T04:45:36;101424.12;;;7.90;100.00
64632;BME280;58358;50.936;0.246;2024-03-22T04:48:03;101417.77;;;7.88;100.00
64632;BME280;58358;50.936;0.246;2024-03-22T04:50:27;101423.68;;;7.59;100.00
64632;BME280;58358;50.936;0.246;2024-03-22T04:52:53;101415.82;;;7.74;100.00
64632;BME280;58358;50.936;0.246;2024-03-22T04:55:18;101412.05;;;8.08;100.00
64632;BME280;58358;50.936;0.246;2024-03-22T04:57:44;101397.03;;;7.73;100.00
64632;BME280;58358;50.936;0.246;2024-03-22T05:00:11;101411.70;;;6.66;100.00
64632;BME280;58358;50.936;0.246;2024-03-22T05:02:36;101409.51;;;8.34;100.00
64632;BME280;58358;50.936;0.246;2024-03-22T05:05:01;101403.67;;;7.53;100.00
64632;BME280;58358;50.936;0.246;2024-03-22T05:07:27;101405.44;;;8.06;100.00
64632;BME280;58358;50.936;0.246;2024-03-22T05:09:53;101403.89;;;7.81;100.00
64632;BME280;58358;50.936;0.246;2024-03-22T05:12:18;101396.29;;;8.17;100.00
64632;BME280;58358;50.936;0.246;2024-03-22T05:14:44;101394.88;;;7.29;100.00
64632;BME280;58358;50.936;0.246;2024-03-22T05:17:10;101390.12;;;8.08;100.00
64632;BME280;58358;50.936;0.246;2024-03-22T05:19:35;101381.29;;;7.81;100.00
64632;BME280;58358;50.936;0.246;2024-03-22T05:22:00;101377.66;;;7.91;100.00
64632;BME280;58358;50.936;0.246;2024-03-22T05:24:26;101382.10;;;7.54;100.00
64632;BME280;58358;50.936;0.246;2024-03-22T05:26:51;101376.98;;;7.85;100.00
64632;BME280;58358;50.936;0.246;2024-03-22T05:29:17;101379.31;;;6.64;100.00
64632;BME280;58358;50.936;0.246;2024-03-22T05:31:47;101378.24;;;8.15;100.00
64632;BME280;58358;50.936;0.246;2024-03-22T05:34:09;101374.31;;;8.69;100.00
64632;BME280;58358;50.936;0.246;2024-03-22T05:36:34;101374.39;;;8.09;100.00
64632;BME280;58358;50.936;0.246;2024-03-22T05:39:00;101368.77;;;7.76;100.00
64632;BME280;58358;50.936;0.246;2024-03-22T05:41:26;101374.96;;;8.71;100.00
64632;BME280;58358;50.936;0.246;2024-03-22T05:43:51;101375.22;;;8.40;100.00
64632;BME280;58358;50.936;0.246;2024-03-22T05:46:17;101374.63;;;8.31;100.00
64632;BME280;58358;50.936;0.246;2024-03-22T05:48:43;101372.17;;;8.10;100.00
64632;BME280;58358;50.936;0.246;2024-03-22T05:51:09;101369.34;;;7.99;100.00
64632;BME280;58358;50.936;0.246;2024-03-22T05:53:34;101365.91;;;8.72;100.00
64632;BME280;58358;50.936;0.246;2024-03-22T05:56:00;101361.55;;;7.77;100.00
64632;BME280;58358;50.936;0.246;2024-03-22T05:58:25;101359.47;;;7.91;100.00
64632;BME280;58358;50.936;0.246;2024-03-22T06:00:51;101360.74;;;7.92;100.00
64632;BME280;58358;50.936;0.246;2024-03-22T06:03:17;101364.41;;;7.90;100.00
64632;BME280;58358;50.936;0.246;2024-03-22T06:05:43;101363.86;;;7.59;100.00
64632;BME280;58358;50.936;0.246;2024-03-22T06:08:08;101361.49;;;7.85;100.00
64632;BME280;58358;50.936;0.246;2024-03-22T06:10:34;101360.02;;;7.60;100.00
64632;BME280;58358;50.936;0.246;2024-03-22T06:13:00;101359.20;;;8.12;100.00
64632;BME280;58358;50.936;0.246;2024-03-22T06:15:26;101361.12;;;8.14;100.00
64632;BME280;58358;50.936;0.246;2024-03-22T06:17:51;101356.48;;;7.83;100.00
64632;BME280;58358;50.936;0.246;2024-03-22T06:20:16;101358.25;;;8.16;100.00
64632;BME280;58358;50.936;0.246;2024-03-22T06:22:42;101358.11;;;7.88;100.00
64632;BME280;58358;50.936;0.246;2024-03-22T06:25:08;101356.20;;;7.97;100.00
64632;BME280;58358;50.936;0.246;2024-03-22T06:27:33;101355.63;;;7.96;100.00
64632;BME280;58358;50.936;0.246;2024-03-22T06:29:59;101350.35;;;8.10;100.00
64632;BME280;58358;50.936;0.246;2024-03-22T06:32:24;101343.33;;;9.12;100.00
64632;BME280;58358;50.936;0.246;2024-03-22T06:34:50;101336.37;;;9.11;100.00
64632;BME280;58358;50.936;0.246;2024-03-22T06:37:16;101341.78;;;8.35;100.00
64632;BME280;58358;50.936;0.246;2024-03-22T06:39:41;101342.53;;;7.89;100.00
64632;BME280;58358;50.936;0.246;2024-03-22T06:42:07;101341.34;;;7.55;100.00
64632;BME280;58358;50.936;0.246;2024-03-22T06:44:32;101345.43;;;7.70;100.00
64632;BME280;58358;50.936;0.246;2024-03-22T06:46:58;101345.90;;;8.05;100.00
64632;BME280;58358;50.936;0.246;2024-03-22T06:49:24;101350.49;;;8.40;100.00
64632;BME280;58358;50.936;0.246;2024-03-22T06:51:50;101343.63;;;8.56;100.00
64632;BME280;58358;50.936;0.246;2024-03-22T06:54:15;101343.13;;;8.48;100.00
64632;BME280;58358;50.936;0.246;2024-03-22T06:56:41;101341.54;;;8.52;100.00
64632;BME280;58358;50.936;0.246;2024-03-22T06:59:06;101341.92;;;8.66;100.00
64632;BME280;58358;50.936;0.246;2024-03-22T07:01:32;101339.55;;;8.92;100.00
64632;BME280;58358;50.936;0.246;2024-03-22T07:03:58;101340.13;;;8.48;100.00
64632;BME280;58358;50.936;0.246;2024-03-22T07:06:23;101341.27;;;8.94;100.00
64632;BME280;58358;50.936;0.246;2024-03-22T07:08:49;101341.46;;;9.00;100.00
64632;BME280;58358;50.936;0.246;2024-03-22T07:11:15;101336.78;;;8.89;100.00
64632;BME280;58358;50.936;0.246;2024-03-22T07:13:41;101337.75;;;9.47;100.00
64632;BME280;58358;50.936;0.246;2024-03-22T07:16:06;101330.55;;;8.46;100.00
64632;BME280;58358;50.936;0.246;2024-03-22T07:18:33;101332.10;;;8.81;100.00
64632;BME280;58358;50.936;0.246;2024-03-22T07:20:57;101328.74;;;9.85;100.00
64632;BME280;58358;50.936;0.246;2024-03-22T07:23:23;101322.84;;;9.38;100.00
64632;BME280;58358;50.936;0.246;2024-03-22T07:25:48;101319.84;;;9.71;100.00
64632;BME280;58358;50.936;0.246;2024-03-22T07:28:14;101313.14;;;9.38;100.00
64632;BME280;58358;50.936;0.246;2024-03-22T07:30:40;101311.76;;;8.17;100.00
64632;BME280;58358;50.936;0.246;2024-03-22T07:33:05;101308.41;;;8.65;100.00
64632;BME280;58358;50.936;0.246;2024-03-22T07:35:31;101308.03;;;9.38;100.00
64632;BME280;58358;50.936;0.246;2024-03-22T07:37:57;101307.86;;;8.82;100.00
64632;BME280;58358;50.936;0.246;2024-03-22T07:40:22;101307.84;;;9.39;100.00
64632;BME280;58358;50.936;0.246;2024-03-22T07:42:48;101306.14;;;8.81;100.00
64632;BME280;58358;50.936;0.246;2024-03-22T07:45:14;101310.82;;;10.04;100.00
64632;BME280;58358;50.936;0.246;2024-03-22T07:47:39;101306.03;;;11.17;100.00
64632;BME280;58358;50.936;0.246;2024-03-22T07:50:06;101309.55;;;10.90;100.00
64632;BME280;58358;50.936;0.246;2024-03-22T07:52:31;101308.73;;;9.56;100.00
64632;BME280;58358;50.936;0.246;2024-03-22T07:54:57;101306.14;;;9.61;100.00
64632;BME280;58358;50.936;0.246;2024-03-22T07:57:22;101308.62;;;9.11;100.00
64632;BME280;58358;50.936;0.246;2024-03-22T07:59:48;101312.91;;;8.80;100.00
64632;BME280;58358;50.936;0.246;2024-03-22T08:02:13;101316.41;;;9.76;100.00
64632;BME280;58358;50.936;0.246;2024-03-22T08:04:39;101315.04;;;9.74;100.00
64632;BME280;58358;50.936;0.246;2024-03-22T08:07:05;101315.17;;;9.53;100.00
64632;BME280;58358;50.936;0.246;2024-03-22T08:09:31;101318.84;;;8.92;100.00
64632;BME280;58358;50.936;0.246;2024-03-22T08:11:56;101322.78;;;8.42;100.00
64632;BME280;58358;50.936;0.246;2024-03-22T08:14:22;101320.25;;;9.48;100.00
64632;BME280;58358;50.936;0.246;2024-03-22T08:16:47;101317.11;;;9.29;100.00
64632;BME280;58358;50.936;0.246;2024-03-22T08:19:13;101320.25;;;8.60;100.00
64632;BME280;58358;50.936;0.246;2024-03-22T08:21:39;101322.97;;;8.23;100.00
64632;BME280;58358;50.936;0.246;2024-03-22T08:24:05;101316.89;;;9.02;100.00
64632;BME280;58358;50.936;0.246;2024-03-22T08:26:30;101314.15;;;9.41;100.00
64632;BME280;58358;50.936;0.246;2024-03-22T08:28:55;101315.84;;;8.86;100.00
64632;BME280;58358;50.936;0.246;2024-03-22T08:31:21;101312.92;;;9.60;100.00
64632;BME280;58358;50.936;0.246;2024-03-22T08:33:46;101311.97;;;8.48;100.00
64632;BME280;58358;50.936;0.246;2024-03-22T08:36:11;101312.91;;;9.05;100.00
64632;BME280;58358;50.936;0.246;2024-03-22T08:38:36;101310.69;;;8.46;100.00
64632;BME280;58358;50.936;0.246;2024-03-22T08:41:02;101311.45;;;8.59;100.00
64632;BME280;58358;50.936;0.246;2024-03-22T08:43:27;101309.26;;;9.21;100.00
64632;BME280;58358;50.936;0.246;2024-03-22T08:45:53;101305.97;;;9.99;100.00
64632;BME280;58358;50.936;0.246;2024-03-22T08:48:18;101308.91;;;9.85;100.00
64632;BME280;58358;50.936;0.246;2024-03-22T08:50:44;101307.55;;;10.53;100.00
64632;BME280;58358;50.936;0.246;2024-03-22T08:53:09;101303.97;;;9.50;100.00
64632;BME280;58358;50.936;0.246;2024-03-22T08:55:35;101304.93;;;9.24;100.00
64632;BME280;58358;50.936;0.246;2024-03-22T08:58:00;101305.45;;;8.90;100.00
64632;BME280;58358;50.936;0.246;2024-03-22T09:00:26;101308.18;;;9.07;100.00
64632;BME280;58358;50.936;0.246;2024-03-22T09:02:51;101304.45;;;9.82;100.00
64632;BME280;58358;50.936;0.246;2024-03-22T09:05:17;101304.71;;;10.61;100.00
64632;BME280;58358;50.936;0.246;2024-03-22T09:07:42;101303.83;;;10.78;100.00
64632;BME280;58358;50.936;0.246;2024-03-22T09:10:09;101303.95;;;9.95;100.00
64632;BME280;58358;50.936;0.246;2024-03-22T09:12:35;101304.87;;;10.02;100.00
64632;BME280;58358;50.936;0.246;2024-03-22T09:14:59;101302.15;;;10.23;100.00
64632;BME280;58358;50.936;0.246;2024-03-22T09:17:25;101294.95;;;8.88;100.00
64632;BME280;58358;50.936;0.246;2024-03-22T09:19:50;101297.21;;;9.90;100.00
64632;BME280;58358;50.936;0.246;2024-03-22T09:22:15;101291.19;;;10.82;100.00
64632;BME280;58358;50.936;0.246;2024-03-22T09:24:41;101289.20;;;10.92;100.00
64632;BME280;58358;50.936;0.246;2024-03-22T09:27:06;101284.14;;;11.44;100.00
64632;BME280;58358;50.936;0.246;2024-03-22T09:29:32;101279.37;;;11.60;100.00
64632;BME280;58358;50.936;0.246;2024-03-22T09:31:57;101280.54;;;10.46;100.00
64632;BME280;58358;50.936;0.246;2024-03-22T09:34:23;101279.68;;;10.57;100.00
64632;BME280;58358;50.936;0.246;2024-03-22T09:36:48;101280.83;;;10.12;100.00
64632;BME280;58358;50.936;0.246;2024-03-22T09:39:14;101280.04;;;9.77;100.00
64632;BME280;58358;50.936;0.246;2024-03-22T09:41:42;101277.36;;;9.82;100.00
64632;BME280;58358;50.936;0.246;2024-03-22T09:44:05;101276.10;;;10.37;100.00
64632;BME280;58358;50.936;0.246;2024-03-22T09:46:31;101277.41;;;10.57;100.00
64632;BME280;58358;50.936;0.246;2024-03-22T09:48:56;101276.06;;;10.67;100.00
64632;BME280;58358;50.936;0.246;2024-03-22T09:51:22;101268.54;;;11.03;100.00
64632;BME280;58358;50.936;0.246;2024-03-22T09:53:49;101273.64;;;10.38;100.00
64632;BME280;58358;50.936;0.246;2024-03-22T09:56:14;101276.64;;;10.95;100.00
64632;BME280;58358;50.936;0.246;2024-03-22T09:58:38;101270.85;;;11.74;100.00
64632;BME280;58358;50.936;0.246;2024-03-22T10:01:05;101271.02;;;11.18;100.00
64632;BME280;58358;50.936;0.246;2024-03-22T10:03:30;101273.69;;;10.60;100.00
64632;BME280;58358;50.936;0.246;2024-03-22T10:05:56;101269.86;;;11.22;100.00
64632;BME280;58358;50.936;0.246;2024-03-22T10:08:21;101268.64;;;11.28;100.00
64632;BME280;58358;50.936;0.246;2024-03-22T10:10:46;101262.25;;;11.32;100.00
64632;BME280;58358;50.936;0.246;2024-03-22T10:13:12;101265.06;;;11.17;100.00
64632;BME280;58358;50.936;0.246;2024-03-22T10:15:37;101266.14;;;9.99;100.00
64632;BME280;58358;50.936;0.246;2024-03-22T10:18:04;101263.21;;;10.07;100.00
64632;BME280;58358;50.936;0.246;2024-03-22T10:20:28;101257.82;;;11.04;100.00
64632;BME280;58358;50.936;0.246;2024-03-22T10:22:56;101261.03;;;10.83;100.00
64632;BME280;58358;50.936;0.246;2024-03-22T10:25:19;101252.88;;;11.06;100.00
64632;BME280;58358;50.936;0.246;2024-03-22T10:27:45;101261.23;;;10.86;100.00
64632;BME280;58358;50.936;0.246;2024-03-22T10:30:12;101261.25;;;10.96;100.00
64632;BME280;58358;50.936;0.246;2024-03-22T10:32:36;101257.82;;;10.35;100.00
64632;BME280;58358;50.936;0.246;2024-03-22T10:35:02;101253.14;;;10.39;100.00
64632;BME280;58358;50.936;0.246;2024-03-22T10:37:27;101253.02;;;9.90;100.00
64632;BME280;58358;50.936;0.246;2024-03-22T10:39:55;101253.43;;;10.13;100.00
64632;BME280;58358;50.936;0.246;2024-03-22T10:42:18;101253.67;;;9.78;100.00
64632;BME280;58358;50.936;0.246;2024-03-22T10:44:43;101251.55;;;9.35;100.00
64632;BME280;58358;50.936;0.246;2024-03-22T10:47:10;101247.15;;;9.67;100.00
64632;BME280;58358;50.936;0.246;2024-03-22T10:49:38;101243.67;;;10.82;100.00
64632;BME280;58358;50.936;0.246;2024-03-22T10:52:01;101235.33;;;10.47;100.00
64632;BME280;58358;50.936;0.246;2024-03-22T10:54:32;101223.39;;;11.92;100.00
64632;BME280;58358;50.936;0.246;2024-03-22T10:56:51;101225.50;;;11.57;100.00
64632;BME280;58358;50.936;0.246;2024-03-22T10:59:19;101225.66;;;12.89;100.00
64632;BME280;58358;50.936;0.246;2024-03-22T11:01:46;101220.24;;;12.58;100.00
64632;BME280;58358;50.936;0.246;2024-03-22T11:04:06;101220.37;;;11.56;100.00
64632;BME280;58358;50.936;0.246;2024-03-22T11:06:31;101215.49;;;10.75;100.00
64632;BME280;58358;50.936;0.246;2024-03-22T11:08:59;101213.44;;;10.48;100.00
64632;BME280;58358;50.936;0.246;2024-03-22T11:11:22;101208.32;;;10.94;100.00
64632;BME280;58358;50.936;0.246;2024-03-22T11:13:48;101208.12;;;10.72;100.00
64632;BME280;58358;50.936;0.246;2024-03-22T11:16:14;101206.37;;;9.99;100.00
64632;BME280;58358;50.936;0.246;2024-03-22T11:18:39;101206.41;;;10.23;100.00
64632;BME280;58358;50.936;0.246;2024-03-22T11:21:04;101198.80;;;10.23;100.00
64632;BME280;58358;50.936;0.246;2024-03-22T11:23:30;101193.88;;;11.18;100.00
64632;BME280;58358;50.936;0.246;2024-03-22T11:25:56;101194.27;;;10.05;100.00
64632;BME280;58358;50.936;0.246;2024-03-22T11:28:20;101189.53;;;11.22;100.00
64632;BME280;58358;50.936;0.246;2024-03-22T11:30:46;101185.46;;;11.07;100.00
64632;BME280;58358;50.936;0.246;2024-03-22T11:33:12;101185.71;;;10.54;100.00
64632;BME280;58358;50.936;0.246;2024-03-22T11:35:37;101187.68;;;11.27;100.00
64632;BME280;58358;50.936;0.246;2024-03-22T11:38:02;101187.05;;;11.97;100.00
64632;BME280;58358;50.936;0.246;2024-03-22T11:40:28;101185.44;;;11.13;100.00
64632;BME280;58358;50.936;0.246;2024-03-22T11:42:54;101192.01;;;10.22;100.00
64632;BME280;58358;50.936;0.246;2024-03-22T11:45:19;101189.61;;;10.46;100.00
64632;BME280;58358;50.936;0.246;2024-03-22T11:47:44;101187.31;;;10.00;100.00
64632;BME280;58358;50.936;0.246;2024-03-22T11:50:11;101189.90;;;10.50;100.00
64632;BME280;58358;50.936;0.246;2024-03-22T11:52:35;101183.78;;;11.10;100.00
64632;BME280;58358;50.936;0.246;2024-03-22T11:54:59;101182.28;;;11.54;100.00
64632;BME280;58358;50.936;0.246;2024-03-22T11:57:24;101178.00;;;10.84;100.00
64632;BME280;58358;50.936;0.246;2024-03-22T11:59:51;101178.89;;;9.86;100.00
64632;BME280;58358;50.936;0.246;2024-03-22T12:02:15;101176.83;;;9.80;100.00
64632;BME280;58358;50.936;0.246;2024-03-22T12:04:41;101171.20;;;10.01;100.00
64632;BME280;58358;50.936;0.246;2024-03-22T12:07:05;101170.83;;;10.29;100.00
64632;BME280;58358;50.936;0.246;2024-03-22T12:09:30;101162.75;;;10.57;100.00
64632;BME280;58358;50.936;0.246;2024-03-22T12:11:56;101165.65;;;10.77;100.00
64632;BME280;58358;50.936;0.246;2024-03-22T12:14:21;101160.87;;;10.15;100.00
64632;BME280;58358;50.936;0.246;2024-03-22T12:16:47;101158.20;;;11.10;100.00
64632;BME280;58358;50.936;0.246;2024-03-22T12:19:12;101156.98;;;10.63;100.00
64632;BME280;58358;50.936;0.246;2024-03-22T12:21:38;101149.48;;;11.86;100.00
64632;BME280;58358;50.936;0.246;2024-03-22T12:24:05;101149.31;;;11.13;100.00
64632;BME280;58358;50.936;0.246;2024-03-22T12:26:29;101151.43;;;11.54;100.00
64632;BME280;58358;50.936;0.246;2024-03-22T12:28:58;101151.17;;;11.28;100.00
64632;BME280;58358;50.936;0.246;2024-03-22T12:31:20;101144.79;;;12.08;100.00
64632;BME280;58358;50.936;0.246;2024-03-22T12:33:45;101136.04;;;12.47;100.00
64632;BME280;58358;50.936;0.246;2024-03-22T12:36:11;101134.58;;;12.56;100.00
64632;BME280;58358;50.936;0.246;2024-03-22T12:38:36;101128.73;;;13.18;100.00